Time;durP1;ratioP1;P1;durP2;ratioP2;P2;SDS_P1;SDS_P2;PMS_P1;PMS_P2;Temp;Humidity;BMP_temperature;BMP_pressure;BME280_temperature;BME280_humidity;BME280_pressure;Samples;Min_cycle;Max_cycle;Signal;HPM_P1;HPM_P2
2023/08/03 00:02:12;;;;;;;6.00;1.88;;;;;;;;;;4994895;28;20022;-74
2023/08/03 00:04:38;;;;;;;5.50;2.03;;;;;;;;;;4994909;28;20023;-74
2023/08/03 00:07:04;;;;;;;5.47;1.88;;;;;;;;;;4994480;28;20084;-75
2023/08/03 00:09:30;;;;;;;7.10;2.25;;;;;;;;;;4994678;28;20022;-74
2023/08/03 00:11:56;;;;;;;7.22;1.92;;;;;;;;;;4994160;28;20034;-74
2023/08/03 00:14:22;;;;;;;7.80;1.90;;;;;;;;;;4994818;28;20050;-73
2023/08/03 00:16:48;;;;;;;8.30;2.63;;;;;;;;;;4994697;28;20023;-75
2023/08/03 00:19:14;;;;;;;8.10;2.08;;;;;;;;;;4995099;28;20474;-75
2023/08/03 00:21:40;;;;;;;5.28;1.52;;;;;;;;;;4994882;28;20064;-75
2023/08/03 00:24:06;;;;;;;6.63;2.30;;;;;;;;;;4996287;28;20041;-75
2023/08/03 00:26:33;;;;;;;7.00;1.80;;;;;;;;;;4996308;28;20033;-75
2023/08/03 00:28:59;;;;;;;5.93;1.73;;;;;;;;;;4994469;28;20026;-76
2023/08/03 00:31:25;;;;;;;8.73;2.28;;;;;;;;;;4994171;28;20018;-75
2023/08/03 00:33:51;;;;;;;3.42;1.27;;;;;;;;;;4993949;28;20065;-75
2023/08/03 00:36:17;;;;;;;9.27;2.45;;;;;;;;;;4994341;28;20443;-75
2023/08/03 00:38:43;;;;;;;4.57;1.67;;;;;;;;;;4993890;28;20036;-75
2023/08/03 00:41:09;;;;;;;6.40;1.65;;;;;;;;;;4994090;28;20105;-75
2023/08/03 00:43:35;;;;;;;7.45;1.95;;;;;;;;;;4994583;28;20026;-75
2023/08/03 00:46:01;;;;;;;6.70;2.00;;;;;;;;;;4994520;28;20027;-75
2023/08/03 00:48:27;;;;;;;4.85;1.80;;;;;;;;;;4976765;28;20113;-74
2023/08/03 00:50:53;;;;;;;4.60;1.92;;;;;;;;;;4994972;28;20061;-74
2023/08/03 00:53:19;;;;;;;8.52;1.92;;;;;;;;;;4995106;28;20490;-75
2023/08/03 00:55:46;;;;;;;9.20;1.50;;;;;;;;;;4995758;28;20108;-75
2023/08/03 00:58:11;;;;;;;7.80;2.35;;;;;;;;;;4995543;28;20393;-75
2023/08/03 01:00:37;;;;;;;5.60;1.55;;;;;;;;;;4994211;28;20023;-75
2023/08/03 01:03:04;;;;;;;9.15;2.33;;;;;;;;;;4992802;28;20029;-75
2023/08/03 01:05:32;;;;;;;5.03;1.80;;;;;;;;;;4993564;28;20021;-75
2023/08/03 01:07:58;;;;;;;10.07;2.08;;;;;;;;;;4993262;28;20034;-75
2023/08/03 01:10:25;;;;;;;7.72;2.05;;;;;;;;;;4993683;28;20112;-75
2023/08/03 01:12:51;;;;;;;9.10;2.45;;;;;;;;;;4993551;28;20057;-74
2023/08/03 01:15:17;;;;;;;5.53;1.73;;;;;;;;;;4993828;28;20478;-76
2023/08/03 01:17:43;;;;;;;5.80;1.42;;;;;;;;;;4994295;28;20026;-74
2023/08/03 01:20:10;;;;;;;5.32;1.80;;;;;;;;;;4995036;28;20022;-75
2023/08/03 01:22:38;;;;;;;5.85;1.73;;;;;;;;;;4996065;28;20046;-74
2023/08/03 01:25:04;;;;;;;9.30;2.20;;;;;;;;;;4995715;28;20045;-73
2023/08/03 01:27:30;;;;;;;9.13;1.80;;;;;;;;;;4996801;28;20513;-74
2023/08/03 01:29:56;;;;;;;6.22;1.90;;;;;;;;;;4996257;28;20026;-74
2023/08/03 01:32:22;;;;;;;8.57;1.80;;;;;;;;;;4996810;28;20033;-74
2023/08/03 01:34:48;;;;;;;8.70;2.05;;;;;;;;;;4997571;28;20470;-76
2023/08/03 01:37:17;;;;;;;7.25;1.63;;;;;;;;;;4994980;28;20022;-75
2023/08/03 01:39:46;;;;;;;6.00;1.45;;;;;;;;;;4993069;28;20026;-75
2023/08/03 01:42:15;;;;;;;3.10;1.20;;;;;;;;;;4993083;28;20097;-75
2023/08/03 01:44:42;;;;;;;6.05;1.98;;;;;;;;;;4992998;28;20397;-75
2023/08/03 01:47:09;;;;;;;5.55;1.63;;;;;;;;;;4992617;28;20030;-76
2023/08/03 01:49:36;;;;;;;6.35;1.98;;;;;;;;;;4992580;28;20035;-74
2023/08/03 01:52:02;;;;;;;10.55;2.30;;;;;;;;;;4992619;28;20479;-75
2023/08/03 01:54:27;;;;;;;6.32;2.05;;;;;;;;;;4975202;28;20023;-73
2023/08/03 01:56:54;;;;;;;10.88;2.28;;;;;;;;;;4992204;28;20010;-75
2023/08/03 01:59:20;;;;;;;12.82;2.58;;;;;;;;;;4992469;28;20104;-75
2023/08/03 02:01:46;;;;;;;8.07;1.98;;;;;;;;;;4992665;28;20065;-73
2023/08/03 02:04:14;;;;;;;6.25;1.95;;;;;;;;;;4992446;28;20030;-75
2023/08/03 02:06:40;;;;;;;8.13;1.98;;;;;;;;;;4974750;28;20033;-75
2023/08/03 02:09:06;;;;;;;4.28;1.65;;;;;;;;;;4992117;28;20026;-75
2023/08/03 02:11:34;;;;;;;5.93;1.80;;;;;;;;;;4986493;28;20030;-75
2023/08/03 02:14:00;;;;;;;7.57;1.80;;;;;;;;;;4991768;28;20023;-74
2023/08/03 02:16:26;;;;;;;6.10;2.00;;;;;;;;;;4992208;28;20041;-74
2023/08/03 02:18:52;;;;;;;3.92;1.52;;;;;;;;;;4991774;28;20072;-75
2023/08/03 02:21:18;;;;;;;6.60;1.77;;;;;;;;;;4992165;28;20022;-75
2023/08/03 02:23:44;;;;;;;6.93;1.85;;;;;;;;;;4992191;28;20105;-75
2023/08/03 02:26:10;;;;;;;6.53;2.22;;;;;;;;;;4991949;28;20064;-75
2023/08/03 02:28:36;;;;;;;8.85;1.92;;;;;;;;;;4991818;28;20070;-75
2023/08/03 02:31:02;;;;;;;5.60;1.75;;;;;;;;;;4991977;28;20105;-75
2023/08/03 02:33:28;;;;;;;11.13;2.17;;;;;;;;;;4991843;28;20030;-74
2023/08/03 02:35:55;;;;;;;3.05;1.35;;;;;;;;;;4991943;28;20101;-75
2023/08/03 02:38:21;;;;;;;4.97;2.00;;;;;;;;;;4991747;28;20451;-75
2023/08/03 02:40:47;;;;;;;9.02;2.03;;;;;;;;;;4974470;28;20101;-75
2023/08/03 02:43:13;;;;;;;8.88;2.03;;;;;;;;;;4991667;28;20061;-75
2023/08/03 02:45:39;;;;;;;4.43;1.40;;;;;;;;;;4991646;28;20014;-75
2023/08/03 02:48:05;;;;;;;4.60;1.65;;;;;;;;;;4991064;28;20026;-75
2023/08/03 02:50:31;;;;;;;6.30;2.10;;;;;;;;;;4991813;28;20025;-75
2023/08/03 02:52:57;;;;;;;7.68;1.92;;;;;;;;;;4991456;28;20026;-75
2023/08/03 02:55:23;;;;;;;6.28;1.27;;;;;;;;;;4991499;28;20034;-75
2023/08/03 02:57:49;;;;;;;9.48;2.15;;;;;;;;;;4991309;28;20543;-75
2023/08/03 03:00:16;;;;;;;7.93;1.83;;;;;;;;;;4991399;28;20026;-75
2023/08/03 03:02:42;;;;;;;7.93;2.00;;;;;;;;;;4991460;28;20026;-75
2023/08/03 03:05:09;;;;;;;7.70;1.95;;;;;;;;;;4991604;28;20031;-74
2023/08/03 03:07:35;;;;;;;5.68;1.60;;;;;;;;;;4991266;28;20027;-74
2023/08/03 03:10:01;;;;;;;6.75;2.20;;;;;;;;;;4991114;28;20041;-76
2023/08/03 03:12:27;;;;;;;10.88;4.65;;;;;;;;;;4991548;28;20019;-76
2023/08/03 03:14:53;;;;;;;28.50;13.40;;;;;;;;;;4992075;28;20398;-75
2023/08/03 03:17:18;;;;;;;22.65;5.95;;;;;;;;;;4992196;28;20026;-76
2023/08/03 03:19:44;;;;;;;11.95;5.10;;;;;;;;;;4991277;28;20460;-75
2023/08/03 03:22:11;;;;;;;14.60;5.82;;;;;;;;;;4991287;28;20023;-75
2023/08/03 03:24:37;;;;;;;11.52;3.35;;;;;;;;;;4991204;28;20433;-75
2023/08/03 03:27:03;;;;;;;13.40;2.75;;;;;;;;;;4995048;28;20022;-75
2023/08/03 03:29:29;;;;;;;5.53;1.77;;;;;;;;;;4977700;28;20023;-74
2023/08/03 03:31:55;;;;;;;12.30;2.40;;;;;;;;;;4995111;28;20058;-75
2023/08/03 03:34:21;;;;;;;6.07;1.65;;;;;;;;;;4995234;28;20149;-75
2023/08/03 03:36:48;;;;;;;6.45;1.88;;;;;;;;;;4995255;28;20042;-75
2023/08/03 03:39:14;;;;;;;4.95;1.73;;;;;;;;;;4995113;28;20088;-75
2023/08/03 03:41:40;;;;;;;7.53;2.05;;;;;;;;;;4995413;28;20029;-75
2023/08/03 03:44:06;;;;;;;7.20;2.28;;;;;;;;;;4995133;28;20026;-75
2023/08/03 03:46:32;;;;;;;7.32;1.73;;;;;;;;;;4995102;28;20019;-75
2023/08/03 03:48:58;;;;;;;7.13;2.00;;;;;;;;;;4994157;28;20121;-74
2023/08/03 03:51:24;;;;;;;11.57;2.13;;;;;;;;;;4995072;28;20100;-75
2023/08/03 03:53:50;;;;;;;4.78;1.52;;;;;;;;;;4995009;28;20065;-76
2023/08/03 03:56:16;;;;;;;8.55;1.95;;;;;;;;;;4977458;28;20042;-76
2023/08/03 03:58:42;;;;;;;8.23;2.00;;;;;;;;;;4977237;28;20034;-74
2023/08/03 04:01:08;;;;;;;7.88;2.08;;;;;;;;;;5000311;28;20022;-75
2023/08/03 04:03:34;;;;;;;6.95;1.73;;;;;;;;;;5002596;28;20101;-75
2023/08/03 04:06:00;;;;;;;7.60;2.17;;;;;;;;;;5004996;28;20089;-74
2023/08/03 04:08:26;;;;;;;6.18;2.25;;;;;;;;;;5000155;28;20022;-75
2023/08/03 04:10:52;;;;;;;7.18;2.08;;;;;;;;;;4998674;28;20033;-75
2023/08/03 04:13:18;;;;;;;11.30;2.28;;;;;;;;;;4996618;28;20037;-75
2023/08/03 04:15:44;;;;;;;7.43;2.15;;;;;;;;;;4994521;28;20015;-76
2023/08/03 04:18:10;;;;;;;4.50;1.85;;;;;;;;;;4993938;28;20359;-76
2023/08/03 04:20:36;;;;;;;7.60;2.38;;;;;;;;;;4994504;28;20033;-76
2023/08/03 04:23:02;;;;;;;12.57;2.20;;;;;;;;;;4994333;28;20014;-76
2023/08/03 04:25:28;;;;;;;7.65;2.13;;;;;;;;;;4976684;28;20617;-74
2023/08/03 04:27:54;;;;;;;6.18;2.13;;;;;;;;;;4993739;28;20026;-75
2023/08/03 04:30:20;;;;;;;4.35;1.33;;;;;;;;;;4994327;28;20501;-75
2023/08/03 04:32:45;;;;;;;3.80;1.80;;;21.70;63.60;;;;;;4994224;28;20022;-74
2023/08/03 04:35:11;;;;;;;6.97;2.22;;;22.40;62.00;;;;;;4994346;28;20037;-75
2023/08/03 04:37:37;;;;;;;11.13;1.83;;;23.30;57.60;;;;;;4993942;28;20041;-75
2023/08/03 04:40:04;;;;;;;5.25;1.50;;;24.20;54.40;;;;;;4993997;28;20022;-75
2023/08/03 04:42:29;;;;;;;4.85;1.67;;;25.00;51.90;;;;;;4994043;28;20019;-75
2023/08/03 04:44:56;;;;;;;5.43;1.85;;;25.50;50.20;;;;;;4993847;28;20444;-76
2023/08/03 04:47:22;;;;;;;11.52;1.88;;;;;;;;;;4993783;28;20029;-76
2023/08/03 04:49:47;;;;;;;3.28;1.38;;;26.70;47.30;;;;;;4992898;28;20087;-76
2023/08/03 04:52:14;;;;;;;5.63;1.65;;;26.80;46.00;;;;;;4992565;28;20141;-75
2023/08/03 04:54:39;;;;;;;2.78;1.17;;;27.20;45.10;;;;;;4992692;28;20019;-74
2023/08/03 04:57:05;;;;;;;4.45;1.65;;;27.40;45.90;;;;;;4992549;28;20018;-74
2023/08/03 04:59:31;;;;;;;6.22;1.90;;;28.00;43.80;;;;;;4992544;28;20508;-75
2023/08/03 05:01:56;;;;;;;3.80;1.52;;;28.50;42.70;;;;;;4992466;28;20018;-75
2023/08/03 05:04:22;;;;;;;5.82;1.55;;;29.10;41.50;;;;;;4992615;28;20022;-75
2023/08/03 05:06:47;;;;;;;8.02;2.10;;;29.80;40.00;;;;;;4990851;28;20042;-75
2023/08/03 05:09:13;;;;;;;5.15;1.30;;;30.50;39.20;;;;;;4992391;28;20109;-76
2023/08/03 05:11:41;;;;;;;5.22;1.60;;;30.60;38.60;;;;;;4992520;28;20029;-75
2023/08/03 05:14:07;;;;;;;4.88;1.65;;;31.30;36.90;;;;;;4992140;28;20023;-75
2023/08/03 05:16:33;;;;;;;4.90;1.48;;;;;;;;;;4992582;28;20125;-75
2023/08/03 05:18:59;;;;;;;4.18;1.80;;;;;;;;;;4992031;28;20030;-75
2023/08/03 05:21:24;;;;;;;7.45;1.77;;;;;;;;;;4992489;28;20033;-73
2023/08/03 05:23:50;;;;;;;6.93;2.20;;;31.40;35.00;;;;;;4993581;28;20026;-75
2023/08/03 05:26:16;;;;;;;5.50;1.30;;;31.40;35.40;;;;;;4974941;28;20516;-73
2023/08/03 05:28:41;;;;;;;3.47;1.67;;;31.80;34.80;;;;;;4992314;28;20081;-73
2023/08/03 05:31:07;;;;;;;3.15;1.30;;;31.90;34.30;;;;;;4992462;28;20026;-73
2023/08/03 05:33:34;;;;;;;4.78;1.40;;;32.20;35.00;;;;;;4992466;28;20030;-73
2023/08/03 05:36:00;;;;;;;4.28;1.58;;;33.00;33.50;;;;;;4991934;28;20022;-73
2023/08/03 05:38:26;;;;;;;3.75;0.90;;;33.40;33.10;;;;;;4994106;28;20073;-73
2023/08/03 05:40:51;;;;;;;6.15;1.13;;;33.80;32.80;;;;;;4994207;28;20019;-73
2023/08/03 05:43:17;;;;;;;4.43;1.67;;;34.40;30.30;;;;;;4991838;28;20385;-72
2023/08/03 05:45:47;;;;;;;4.53;1.50;;;34.40;30.80;;;;;;4993239;28;20021;-72
2023/08/03 05:48:20;;;;;;;9.50;1.48;;;34.00;31.40;;;;;;4954102;28;1134399;-72
2023/08/03 05:50:51;;;;;;;5.50;1.40;;;34.10;31.00;;;;;;4994686;28;20393;-72
2023/08/03 05:53:17;;;;;;;2.63;0.98;;;34.50;32.00;;;;;;5004410;23;20045;-76
2023/08/03 05:55:44;;;;;;;5.80;1.92;;;34.80;30.30;;;;;;4972113;28;20118;-73
2023/08/03 05:58:13;;;;;;;4.30;1.67;;;34.70;30.30;;;;;;4956792;28;20038;-74
2023/08/03 06:00:41;;;;;;;2.50;1.20;;;35.40;29.90;;;;;;4968401;28;20121;-74
2023/08/03 06:03:14;;;;;;;6.22;1.63;;;35.80;28.30;;;;;;4974174;28;20023;-77
2023/08/03 06:05:44;;;;;;;4.95;1.30;;;;;;;;;;4970997;28;20034;-73
2023/08/03 06:08:10;;;;;;;3.08;1.30;;;;;;;;;;4968435;28;20042;-74
2023/08/03 06:10:36;;;;;;;6.18;1.40;;;;;;;;;;4980008;28;20022;-76
2023/08/03 06:13:03;;;;;;;4.40;1.20;;;;;;;;;;4977472;28;20034;-74
2023/08/03 06:15:29;;;;;;;2.97;1.20;;;;;;;;;;4990894;28;20076;-74
2023/08/03 06:18:03;;;;;;;4.78;1.20;;;;;;;;;;4983749;28;20022;-75
2023/08/03 06:20:29;;;;;;;4.65;1.15;;;;;;;;;;4979740;28;20055;-75
2023/08/03 06:22:55;;;;;;;2.80;1.05;;;;;;;;;;4981131;28;20015;-75
2023/08/03 06:25:22;;;;;;;3.25;1.17;;;;;;;;;;4984207;28;20057;-76
2023/08/03 06:27:48;;;;;;;2.97;1.10;;;;;;;;;;4982079;28;20030;-76
2023/08/03 06:30:14;;;;;;;5.28;1.23;;;;;;;;;;4988902;28;20033;-75
2023/08/03 06:32:41;;;;;;;2.65;0.90;;;;;;;;;;4970031;28;20468;-75
2023/08/03 06:35:24;;;;;;;2.90;1.17;;;;;;;;;;4983854;28;20033;-77
2023/08/03 06:37:52;;;;;;;3.40;1.15;;;;;;;;;;4983878;28;20037;-76
2023/08/03 06:40:18;;;;;;;3.00;1.50;;;;;;;;;;4968053;28;20046;-76
2023/08/03 06:42:44;;;;;;;3.17;1.30;;;;;;;;;;4984969;28;20078;-74
2023/08/03 06:45:10;;;;;;;5.68;1.58;;;;;;;;;;4990518;28;20022;-76
2023/08/03 06:47:36;;;;;;;4.40;0.90;;;34.90;27.80;;;;;;4983431;28;20364;-75
2023/08/03 06:50:03;;;;;;;1.83;1.20;;;35.50;28.70;;;;;;4980809;28;20078;-73
2023/08/03 06:52:29;;;;;;;1.90;0.95;;;35.90;26.90;;;;;;4977353;28;20022;-74
2023/08/03 06:54:55;;;;;;;2.90;1.20;;;35.10;28.70;;;;;;4978388;28;20030;-74
2023/08/03 06:57:23;;;;;;;4.03;1.17;;;35.60;27.60;;;;;;4968598;28;20019;-74
2023/08/03 06:59:49;;;;;;;5.15;1.30;;;35.70;27.20;;;;;;4982012;28;20475;-75
2023/08/03 07:02:15;;;;;;;4.18;0.82;;;;;;;;;;4980499;28;20054;-76
2023/08/03 07:04:41;;;;;;;3.90;1.00;;;;;;;;;;4980463;28;20102;-77
2023/08/03 07:07:07;;;;;;;3.10;0.90;;;35.40;26.80;;;;;;4982168;28;20149;-78
2023/08/03 07:09:33;;;;;;;5.10;1.42;;;35.00;27.50;;;;;;4983140;28;20076;-76
2023/08/03 07:11:59;;;;;;;4.88;1.05;;;34.40;28.70;;;;;;4982590;28;20506;-76
2023/08/03 07:14:25;;;;;;;2.78;1.00;;;33.60;29.50;;;;;;4962571;28;20027;-76
2023/08/03 07:16:50;;;;;;;3.92;0.90;;;32.50;31.20;;;;;;4984891;28;20331;-77
2023/08/03 07:19:18;;;;;;;4.82;0.95;;;31.90;32.30;;;;;;4964027;28;20438;-75
2023/08/03 07:21:44;;;;;;;6.63;1.10;;;31.40;33.10;;;;;;4981735;28;20065;-75
2023/08/03 07:24:09;;;;;;;6.18;0.98;;;31.00;33.30;;;;;;4973369;28;20505;-76
2023/08/03 07:26:35;;;;;;;4.15;1.00;;;31.10;34.30;;;;;;4958779;28;20061;-77
2023/08/03 07:29:01;;;;;;;3.72;0.80;;;31.50;32.70;;;;;;4970807;28;20051;-74
2023/08/03 07:31:27;;;;;;;2.10;0.98;;;31.30;32.60;;;;;;4984629;28;20069;-75
2023/08/03 07:33:53;;;;;;;3.90;0.80;;;30.90;33.90;;;;;;4987660;28;20027;-77
2023/08/03 07:36:19;;;;;;;3.53;0.70;;;32.20;32.40;;;;;;4979662;28;20026;-75
2023/08/03 07:38:45;;;;;;;2.38;0.50;;;32.80;31.70;;;;;;4982310;28;20394;-75
2023/08/03 07:41:10;;;;;;;3.72;0.90;;;32.80;31.00;;;;;;4982098;28;20106;-75
2023/08/03 07:43:36;;;;;;;3.70;0.82;;;33.20;30.40;;;;;;4990688;28;20692;-75
2023/08/03 07:46:02;;;;;;;3.88;0.80;;;32.80;31.60;;;;;;4978074;28;20026;-76
2023/08/03 07:48:28;;;;;;;3.53;1.02;;;33.30;30.20;;;;;;4960307;28;20118;-75
2023/08/03 07:50:53;;;;;;;3.22;0.80;;;33.70;30.00;;;;;;4977739;28;20105;-76
2023/08/03 07:53:19;;;;;;;5.78;1.48;;;33.60;30.30;;;;;;4978982;28;20097;-75
2023/08/03 07:55:45;;;;;;;4.60;0.80;;;33.80;30.60;;;;;;4981275;28;20073;-75
2023/08/03 07:58:12;;;;;;;10.30;1.05;;;35.00;29.30;;;;;;4975326;28;20023;-76
2023/08/03 08:00:38;;;;;;;1.88;0.88;;;34.80;28.60;;;;;;4978102;28;20106;-74
2023/08/03 08:03:03;;;;;;;3.20;0.82;;;33.80;30.60;;;;;;4977968;28;20101;-75
2023/08/03 08:05:29;;;;;;;3.72;0.70;;;34.70;28.80;;;;;;4963723;28;20490;-75
2023/08/03 08:07:55;;;;;;;6.57;1.38;;;;;;;;;;4981170;28;20109;-76
2023/08/03 08:10:21;;;;;;;3.33;0.85;;;;;;;;;;4977880;28;20038;-76
2023/08/03 08:12:46;;;;;;;1.60;0.88;;;34.90;27.60;;;;;;4981319;28;20027;-76
2023/08/03 08:15:12;;;;;;;2.05;0.60;;;33.00;30.00;;;;;;4982099;28;20477;-77
2023/08/03 08:17:38;;;;;;;2.45;0.60;;;32.30;31.50;;;;;;4984663;28;20101;-75
2023/08/03 08:20:04;;;;;;;2.60;0.90;;;31.20;32.70;;;;;;4983109;28;20109;-75
2023/08/03 08:22:29;;;;;;;4.43;0.95;;;30.90;33.60;;;;;;4981698;28;20029;-76
2023/08/03 08:24:55;;;;;;;2.45;0.80;;;31.40;31.70;;;;;;4981414;28;20015;-76
2023/08/03 08:27:21;;;;;;;4.72;0.80;;;30.50;33.60;;;;;;4964922;28;20634;-76
2023/08/03 08:29:46;;;;;;;3.70;0.70;;;30.40;33.70;;;;;;4983962;28;20026;-75
2023/08/03 08:32:12;;;;;;;4.10;0.73;;;31.00;33.40;;;;;;4967261;28;20062;-75
2023/08/03 08:34:38;;;;;;;3.72;0.90;;;31.50;32.30;;;;;;4984525;28;20049;-76
2023/08/03 08:37:05;;;;;;;3.75;0.85;;;32.70;31.10;;;;;;4984088;28;20023;-75
2023/08/03 08:39:30;;;;;;;3.47;0.77;;;32.70;30.70;;;;;;4988225;28;20023;-75
2023/08/03 08:41:56;;;;;;;2.42;0.82;;;32.40;30.80;;;;;;4986499;28;20494;-75
2023/08/03 08:44:22;;;;;;;6.72;1.23;;;31.90;31.40;;;;;;4982651;28;20022;-76
2023/08/03 08:46:48;;;;;;;1.70;0.60;;;31.80;31.30;;;;;;4980803;28;20046;-75
2023/08/03 08:49:13;;;;;;;2.85;0.98;;;31.90;31.50;;;;;;4982079;28;20101;-75
2023/08/03 08:51:41;;;;;;;3.33;0.75;;;32.40;32.70;;;;;;4988441;28;20022;-78
2023/08/03 08:54:08;;;;;;;6.68;0.95;;;32.30;31.90;;;;;;4972119;28;20027;-76
2023/08/03 08:56:33;;;;;;;3.63;0.80;;;32.20;32.10;;;;;;4985792;28;20035;-76
2023/08/03 08:58:59;;;;;;;2.28;0.50;;;32.80;31.40;;;;;;4982305;28;20026;-75
2023/08/03 09:01:25;;;;;;;2.05;0.68;;;33.40;30.10;;;;;;4976484;28;20034;-75
2023/08/03 09:03:52;;;;;;;3.88;0.85;;;34.00;29.70;;;;;;4982740;28;20034;-75
2023/08/03 09:06:21;;;;;;;7.93;1.13;;;34.40;29.30;;;;;;4980175;28;20023;-75
2023/08/03 09:08:58;;;;;;;3.63;1.02;;;34.60;29.20;;;;;;4980586;28;20019;-75
2023/08/03 09:11:40;;;;;;;2.38;0.80;;;34.40;28.60;;;;;;4983070;28;20113;-75
2023/08/03 09:14:07;;;;;;;1.73;0.47;;;34.60;31.00;;;;;;4964652;28;20105;-75
2023/08/03 09:16:33;;;;;;;3.95;0.80;;;34.70;29.10;;;;;;4980330;28;20402;-75
2023/08/03 09:18:59;;;;;;;2.22;0.88;;;34.80;28.40;;;;;;4980397;28;20590;-75
2023/08/03 09:21:26;;;;;;;3.92;1.10;;;;;;;;;;4983158;28;20027;-75
2023/08/03 09:23:52;;;;;;;2.97;0.52;;;;;;;;;;4982738;28;20431;-75
2023/08/03 09:26:22;;;;;;;4.40;0.95;;;;;;;;;;4980317;28;20395;-75
2023/08/03 09:28:48;;;;;;;2.20;0.90;;;;;;;;;;4980432;28;20109;-75
2023/08/03 09:31:20;;;;;;;3.10;0.80;;;;;;;;;;4965813;28;20045;-76
2023/08/03 09:33:54;;;;;;;3.63;0.77;;;;;;;;;;4983650;28;20026;-75
2023/08/03 09:36:20;;;;;;;2.58;0.57;;;;;;;;;;4966696;28;20474;-75
2023/08/03 09:38:46;;;;;;;2.58;0.57;;;;;;;;;;4980015;28;20100;-74
2023/08/03 09:41:12;;;;;;;1.55;0.40;;;;;;;;;;4980592;28;20098;-74
2023/08/03 09:43:41;;;;;;;2.75;0.70;;;;;;;;;;4965877;28;20023;-74
2023/08/03 09:46:07;;;;;;;1.23;0.47;;;;;;;;;;4981867;28;20035;-75
2023/08/03 09:48:33;;;;;;;1.42;0.35;;;;;;;;;;4979812;28;20102;-75
2023/08/03 09:51:00;;;;;;;3.35;0.63;;;29.40;36.00;;;;;;4979824;28;20155;-75
2023/08/03 09:53:38;;;;;;;4.20;0.43;;;29.30;36.20;;;;;;4983812;28;20030;-79
2023/08/03 09:56:05;;;;;;;3.28;0.40;;;29.00;36.40;;;;;;4984487;28;20029;-79
2023/08/03 09:58:44;;;;;;;1.98;0.30;;;29.20;35.90;;;;;;4978214;28;20027;-77
2023/08/03 10:01:12;;;;;;;2.33;0.73;;;29.10;36.20;;;;;;4980970;28;20046;-79
2023/08/03 10:03:41;;;;;;;1.27;0.32;;;29.50;36.30;;;;;;4967610;28;20022;-78
2023/08/03 10:06:17;;;;;;;1.58;0.60;;;29.90;36.10;;;;;;4986774;28;20077;-76
2023/08/03 10:08:48;;;;;;;1.40;0.47;;;30.00;35.00;;;;;;4986983;28;20054;-76
2023/08/03 10:11:14;;;;;;;1.08;0.50;;;29.90;35.80;;;;;;4986844;28;20023;-77
2023/08/03 10:13:51;;;;;;;1.77;0.68;;;29.50;34.90;;;;;;4968150;28;20088;-77
2023/08/03 10:16:18;;;;;;;3.13;0.50;;;29.00;36.70;;;;;;4979768;28;20014;-74
2023/08/03 10:18:45;;;;;;;3.05;0.50;;;28.80;37.30;;;;;;4979553;28;20019;-75
2023/08/03 10:21:11;;;;;;;2.00;0.55;;;29.00;36.80;;;;;;4964953;28;20023;-74
2023/08/03 10:23:39;;;;;;;2.20;0.70;;;28.90;36.50;;;;;;4965314;28;20545;-75
2023/08/03 10:26:08;;;;;;;9.75;0.90;;;28.70;36.80;;;;;;4981404;28;20454;-76
2023/08/03 10:28:39;;;;;;;7.53;1.45;;;28.70;37.60;;;;;;4979120;28;20057;-74
2023/08/03 10:31:14;;;;;;;1.77;0.75;;;;;;;;;;4979462;28;20030;-73
2023/08/03 10:33:46;;;;;;;4.25;0.50;;;;;;;;;;4971958;28;20022;-75
2023/08/03 10:36:28;;;;;;;3.60;0.55;;;;;;;;;;4979976;28;20026;-73
2023/08/03 10:38:57;;;;;;;1.67;0.70;;;;;;;;;;4978972;28;20018;-79
2023/08/03 10:41:24;;;;;;;4.32;0.60;;;;;;;;;;4980898;28;20023;-75
2023/08/03 10:44:14;;;;;;;5.20;0.68;;;;;;;;;;4982371;28;20394;-74
2023/08/03 10:46:44;;;;;;;2.83;0.60;;;;;;;;;;4973791;28;20530;-75
2023/08/03 10:49:22;;;;;;;0.60;0.40;;;;;;;;;;4979245;28;20066;-77
2023/08/03 10:51:48;;;;;;;4.53;0.80;;;;;;;;;;4982610;28;20113;-75
2023/08/03 10:54:15;;;;;;;4.13;0.77;;;;;;;;;;4961976;28;20406;-75
2023/08/03 10:57:00;;;;;;;1.83;0.70;;;;;;;;;;4978773;28;20033;-73
2023/08/03 10:59:26;;;;;;;2.97;0.52;;;;;;;;;;4977025;28;20022;-74
2023/08/03 11:01:52;;;;;;;1.83;0.50;;;;;;;;;;4972468;28;20046;-74
2023/08/03 11:04:23;;;;;;;1.60;0.57;;;;;;;;;;4973110;28;20026;-74
2023/08/03 11:06:49;;;;;;;3.20;0.60;;;;;;;;;;4972615;28;20478;-74
2023/08/03 11:09:15;;;;;;;2.15;0.73;;;;;;;;;;4971743;28;20062;-75
2023/08/03 11:11:44;;;;;;;3.28;0.68;;;;;;;;;;4972682;28;20057;-73
2023/08/03 11:14:10;;;;;;;2.90;0.98;;;;;;;;;;4971275;28;20030;-75
2023/08/03 11:16:37;;;;;;;2.22;0.68;;;;;;;;;;4955032;28;20410;-74
2023/08/03 11:19:03;;;;;;;1.35;0.50;;;;;;;;;;4972368;28;20099;-75
2023/08/03 11:21:29;;;;;;;3.00;0.70;;;;;;;;;;4972394;28;20027;-75
2023/08/03 11:23:55;;;;;;;1.55;0.40;;;;;;;;;;4972318;28;20035;-75
2023/08/03 11:26:21;;;;;;;3.97;0.90;;;;;;;;;;4972422;28;20370;-74
2023/08/03 11:28:48;;;;;;;2.72;0.60;;;;;;;;;;4954867;28;20023;-74
2023/08/03 11:31:23;;;;;;;2.85;0.70;;;;;;;;;;4972590;28;20042;-74
2023/08/03 11:33:49;;;;;;;2.97;0.70;;;;;;;;;;4954723;28;20180;-74
2023/08/03 11:36:19;;;;;;;3.08;0.98;;;;;;;;;;4970780;28;20050;-74
2023/08/03 11:38:51;;;;;;;4.15;0.50;;;;;;;;;;4972596;28;20019;-74
2023/08/03 11:41:22;;;;;;;2.13;0.50;;;;;;;;;;4955071;28;20027;-75
2023/08/03 11:43:49;;;;;;;1.67;0.57;;;;;;;;;;4972298;28;20407;-75
2023/08/03 11:46:15;;;;;;;3.17;0.52;;;;;;;;;;4973294;28;20090;-75
2023/08/03 11:48:44;;;;;;;1.77;0.40;;;;;;;;;;4975785;28;20451;-74
2023/08/03 11:51:11;;;;;;;2.28;0.88;;;;;;;;;;4976960;28;20636;-77
2023/08/03 11:53:37;;;;;;;4.30;0.65;;;;;;;;;;4997129;23;20042;-75
2023/08/03 11:56:04;;;;;;;1.67;0.60;;;;;;;;;;4985224;28;20041;-74
2023/08/03 11:58:30;;;;;;;1.65;0.57;;;;;;;;;;4997130;28;20026;-75
2023/08/03 12:00:59;;;;;;;1.70;0.57;;;;;;;;;;4976497;28;20019;-73
2023/08/03 12:03:35;;;;;;;6.28;0.75;;;;;;;;;;4993731;28;20030;-73
2023/08/03 12:06:05;;;;;;;3.95;0.70;;;;;;;;;;4993794;28;20434;-74
2023/08/03 12:08:31;;;;;;;5.88;0.93;;;;;;;;;;4992604;28;20018;-74
2023/08/03 12:11:01;;;;;;;3.30;0.85;;;;;;;;;;4976136;28;20133;-73
2023/08/03 12:13:27;;;;;;;1.08;0.40;;;;;;;;;;4992697;28;20015;-73
2023/08/03 12:15:53;;;;;;;2.58;0.68;;;;;;;;;;4994909;28;20029;-73
2023/08/03 12:18:20;;;;;;;1.30;0.43;;;;;;;;;;4995297;28;20057;-74
2023/08/03 12:20:47;;;;;;;3.25;0.90;;;;;;;;;;4997193;28;20025;-73
2023/08/03 12:23:13;;;;;;;1.20;0.60;;;;;;;;;;4977609;28;20034;-73
2023/08/03 12:25:39;;;;;;;3.60;0.50;;;;;;;;;;4994884;28;20487;-73
2023/08/03 12:28:05;;;;;;;0.98;0.50;;;;;;;;;;4994853;28;20030;-73
2023/08/03 12:30:32;;;;;;;2.85;0.70;;;;;;;;;;4994738;28;20101;-75
2023/08/03 12:32:57;;;;;;;4.18;0.70;;;;;;;;;;4995083;28;20026;-74
2023/08/03 12:35:24;;;;;;;1.90;0.50;;;;;;;;;;4977501;28;20041;-74
2023/08/03 12:37:50;;;;;;;1.88;0.50;;;;;;;;;;4995147;28;20102;-73
2023/08/03 12:40:16;;;;;;;1.05;0.65;;;;;;;;;;4977507;28;20050;-73
2023/08/03 12:42:42;;;;;;;2.00;0.70;;;;;;;;;;4977568;28;20026;-73
2023/08/03 12:45:08;;;;;;;7.18;0.93;;;;;;;;;;4977237;28;20117;-74
2023/08/03 12:47:35;;;;;;;1.13;0.60;;;;;;;;;;4994882;28;20394;-72
2023/08/03 12:50:01;;;;;;;3.05;0.88;;;;;;;;;;4995236;28;20026;-73
2023/08/03 12:52:27;;;;;;;3.83;0.93;;;;;;;;;;4995520;28;20030;-73
2023/08/03 12:54:53;;;;;;;3.30;0.60;;;;;;;;;;4994288;28;20056;-74
2023/08/03 12:57:19;;;;;;;3.92;0.80;;;;;;;;;;4994046;28;20105;-73
2023/08/03 12:59:45;;;;;;;4.18;0.68;;;;;;;;;;4994583;28;20026;-74
2023/08/03 13:02:11;;;;;;;2.67;0.57;;;;;;;;;;4994744;28;20021;-75
2023/08/03 13:04:37;;;;;;;3.67;0.82;;;;;;;;;;4994597;28;20409;-73
2023/08/03 13:07:03;;;;;;;0.80;0.32;;;;;;;;;;4994192;28;20109;-73
2023/08/03 13:09:29;;;;;;;2.72;0.50;;;;;;;;;;4994260;28;20497;-73
2023/08/03 13:11:59;;;;;;;2.90;0.65;;;;;;;;;;4994215;28;20030;-73
2023/08/03 13:14:25;;;;;;;0.98;0.20;;;;;;;;;;4994395;28;20034;-72
2023/08/03 13:16:51;;;;;;;3.05;0.50;;;;;;;;;;4976476;28;20022;-73
2023/08/03 13:19:17;;;;;;;3.33;0.60;;;;;;;;;;4975188;28;20074;-73
2023/08/03 13:21:44;;;;;;;1.92;0.40;;;;;;;;;;4992942;28;20069;-74
2023/08/03 13:24:10;;;;;;;2.42;0.40;;;;;;;;;;4993607;28;20038;-73
2023/08/03 13:26:36;;;;;;;0.98;0.20;;;;;;;;;;4993208;28;20026;-75
2023/08/03 13:29:02;;;;;;;1.23;0.40;;;;;;;;;;4993333;28;20080;-74
2023/08/03 13:31:28;;;;;;;4.80;0.50;;;;;;;;;;4993364;28;20030;-74
2023/08/03 13:33:54;;;;;;;0.70;0.40;;;;;;;;;;4975771;28;20026;-73
2023/08/03 13:36:21;;;;;;;2.10;0.30;;;;;;;;;;4993681;28;20033;-74
2023/08/03 13:38:47;;;;;;;4.88;0.55;;;;;;;;;;4976214;28;20014;-74
2023/08/03 13:41:14;;;;;;;0.57;0.20;;;;;;;;;;4993531;28;20030;-73
2023/08/03 13:43:41;;;;;;;2.80;0.50;;;;;;;;;;4993768;28;20027;-74
2023/08/03 13:46:07;;;;;;;3.55;0.40;;;;;;;;;;4993541;28;20023;-73
2023/08/03 13:48:33;;;;;;;2.72;0.47;;;;;;;;;;4993249;28;20390;-73
2023/08/03 13:50:59;;;;;;;6.20;0.85;;;;;;;;;;4992947;28;20030;-74
2023/08/03 13:53:25;;;;;;;2.83;0.38;;;;;;;;;;4992008;28;20030;-74
2023/08/03 13:55:51;;;;;;;1.15;0.50;;;;;;;;;;4992084;28;20546;-74
2023/08/03 13:58:17;;;;;;;1.48;0.43;;;;;;;;;;4991888;28;20054;-73
2023/08/03 14:00:43;;;;;;;1.63;0.40;;;;;;;;;;4992272;28;20053;-74